sensor_id;sensor_type;location;lat;lon;timestamp;P1;durP1;ratioP1;P2;durP2;ratioP2
64560;SDS011;50960;46.838;16.838;2022-11-03T04:02:32;8.55;;;7.65;;
64560;SDS011;50960;46.838;16.838;2022-11-03T04:04:58;9.93;;;8.05;;
64560;SDS011;50960;46.838;16.838;2022-11-03T04:07:25;8.95;;;7.53;;
64560;SDS011;50960;46.838;16.838;2022-11-03T04:10:10;9.25;;;7.15;;
64560;SDS011;50960;46.838;16.838;2022-11-03T04:12:36;9.02;;;7.90;;
64560;SDS011;50960;46.838;16.838;2022-11-03T04:15:24;8.65;;;7.85;;
64560;SDS011;50960;46.838;16.838;2022-11-03T04:18:09;13.68;;;10.95;;
64560;SDS011;50960;46.838;16.838;2022-11-03T04:20:53;11.55;;;8.70;;
64560;SDS011;50960;46.838;16.838;2022-11-03T04:23:38;10.00;;;8.20;;
64560;SDS011;50960;46.838;16.838;2022-11-03T04:26:05;9.82;;;8.00;;
64560;SDS011;50960;46.838;16.838;2022-11-03T04:28:37;8.57;;;7.32;;
64560;SDS011;50960;46.838;16.838;2022-11-03T04:31:05;11.07;;;7.50;;
64560;SDS011;50960;46.838;16.838;2022-11-03T04:33:35;10.73;;;7.22;;
64560;SDS011;50960;46.838;16.838;2022-11-03T04:36:01;9.82;;;6.90;;
64560;SDS011;50960;46.838;16.838;2022-11-03T04:38:36;7.57;;;6.63;;
64560;SDS011;50960;46.838;16.838;2022-11-03T04:41:05;7.85;;;7.05;;
64560;SDS011;50960;46.838;16.838;2022-11-03T04:43:37;9.32;;;7.18;;
64560;SDS011;50960;46.838;16.838;2022-11-03T04:46:04;8.07;;;6.80;;
64560;SDS011;50960;46.838;16.838;2022-11-03T04:48:33;7.82;;;6.57;;
64560;SDS011;50960;46.838;16.838;2022-11-03T04:51:08;9.25;;;6.70;;
64560;SDS011;50960;46.838;16.838;2022-11-03T04:53:39;7.85;;;6.63;;
64560;SDS011;50960;46.838;16.838;2022-11-03T04:56:33;8.38;;;6.25;;
64560;SDS011;50960;46.838;16.838;2022-11-03T04:59:00;7.63;;;6.90;;
64560;SDS011;50960;46.838;16.838;2022-11-03T05:01:26;7.82;;;6.68;;
64560;SDS011;50960;46.838;16.838;2022-11-03T05:03:53;7.63;;;6.53;;
64560;SDS011;50960;46.838;16.838;2022-11-03T05:06:24;7.50;;;6.70;;
64560;SDS011;50960;46.838;16.838;2022-11-03T05:08:54;6.82;;;6.22;;
64560;SDS011;50960;46.838;16.838;2022-11-03T05:13:50;8.70;;;6.40;;
64560;SDS011;50960;46.838;16.838;2022-11-03T05:16:17;8.45;;;6.30;;
64560;SDS011;50960;46.838;16.838;2022-11-03T05:18:45;7.30;;;6.30;;
64560;SDS011;50960;46.838;16.838;2022-11-03T05:21:17;8.68;;;6.50;;
64560;SDS011;50960;46.838;16.838;2022-11-03T05:23:51;7.72;;;6.90;;
64560;SDS011;50960;46.838;16.838;2022-11-03T05:26:23;9.00;;;6.38;;
64560;SDS011;50960;46.838;16.838;2022-11-03T05:28:57;9.77;;;7.20;;
64560;SDS011;50960;46.838;16.838;2022-11-03T05:31:31;10.57;;;8.38;;
64560;SDS011;50960;46.838;16.838;2022-11-03T05:36:39;7.93;;;7.07;;
64560;SDS011;50960;46.838;16.838;2022-11-03T05:41:59;8.80;;;6.80;;
64560;SDS011;50960;46.838;16.838;2022-11-03T05:44:36;9.55;;;6.35;;
64560;SDS011;50960;46.838;16.838;2022-11-03T05:47:08;8.88;;;5.82;;
64560;SDS011;50960;46.838;16.838;2022-11-03T05:49:43;6.55;;;5.32;;
64560;SDS011;50960;46.838;16.838;2022-11-03T05:52:27;9.85;;;5.88;;
64560;SDS011;50960;46.838;16.838;2022-11-03T05:54:54;6.38;;;5.32;;
64560;SDS011;50960;46.838;16.838;2022-11-03T05:57:23;9.00;;;5.60;;
64560;SDS011;50960;46.838;16.838;2022-11-03T05:59:52;7.38;;;5.38;;
64560;SDS011;50960;46.838;16.838;2022-11-03T06:02:35;7.45;;;5.05;;
64560;SDS011;50960;46.838;16.838;2022-11-03T06:08:00;7.65;;;5.50;;
64560;SDS011;50960;46.838;16.838;2022-11-03T14:42:31;5.15;;;4.07;;
64560;SDS011;50960;46.838;16.838;2022-11-03T14:44:57;7.70;;;4.60;;
64560;SDS011;50960;46.838;16.838;2022-11-03T14:47:24;5.82;;;4.03;;
64560;SDS011;50960;46.838;16.838;2022-11-03T14:49:50;6.07;;;4.40;;
64560;SDS011;50960;46.838;16.838;2022-11-03T14:52:16;6.85;;;3.92;;
64560;SDS011;50960;46.838;16.838;2022-11-03T14:54:42;6.93;;;4.32;;
64560;SDS011;50960;46.838;16.838;2022-11-03T14:57:09;7.03;;;5.15;;
64560;SDS011;50960;46.838;16.838;2022-11-03T14:59:35;6.90;;;4.50;;
64560;SDS011;50960;46.838;16.838;2022-11-03T15:02:02;8.32;;;5.18;;
64560;SDS011;50960;46.838;16.838;2022-11-03T15:04:30;5.93;;;4.43;;
64560;SDS011;50960;46.838;16.838;2022-11-03T15:06:56;5.88;;;5.07;;
64560;SDS011;50960;46.838;16.838;2022-11-03T15:09:22;8.48;;;5.18;;
64560;SDS011;50960;46.838;16.838;2022-11-03T15:11:49;8.82;;;6.47;;
64560;SDS011;50960;46.838;16.838;2022-11-03T15:14:15;8.75;;;5.65;;
64560;SDS011;50960;46.838;16.838;2022-11-03T15:16:41;8.50;;;6.43;;
64560;SDS011;50960;46.838;16.838;2022-11-03T15:19:09;12.30;;;6.78;;
64560;SDS011;50960;46.838;16.838;2022-11-03T15:21:35;8.75;;;6.55;;
64560;SDS011;50960;46.838;16.838;2022-11-03T15:24:01;9.05;;;6.78;;
64560;SDS011;50960;46.838;16.838;2022-11-03T15:26:27;9.93;;;7.05;;
64560;SDS011;50960;46.838;16.838;2022-11-03T15:28:54;12.48;;;6.93;;
64560;SDS011;50960;46.838;16.838;2022-11-03T15:31:20;13.07;;;7.57;;
64560;SDS011;50960;46.838;16.838;2022-11-03T15:33:48;10.27;;;7.10;;
64560;SDS011;50960;46.838;16.838;2022-11-03T15:36:14;10.75;;;8.63;;
64560;SDS011;50960;46.838;16.838;2022-11-03T15:38:40;10.77;;;8.05;;
64560;SDS011;50960;46.838;16.838;2022-11-03T15:41:06;14.10;;;9.07;;
64560;SDS011;50960;46.838;16.838;2022-11-03T15:43:42;14.43;;;9.32;;
64560;SDS011;50960;46.838;16.838;2022-11-03T15:46:09;14.10;;;10.02;;
64560;SDS011;50960;46.838;16.838;2022-11-03T15:48:36;14.35;;;9.40;;
64560;SDS011;50960;46.838;16.838;2022-11-03T15:51:03;15.63;;;9.70;;
64560;SDS011;50960;46.838;16.838;2022-11-03T15:53:30;13.60;;;10.10;;
64560;SDS011;50960;46.838;16.838;2022-11-03T15:55:56;15.95;;;10.15;;
64560;SDS011;50960;46.838;16.838;2022-11-03T15:58:22;13.45;;;10.13;;
64560;SDS011;50960;46.838;16.838;2022-11-03T16:00:48;14.55;;;9.88;;
64560;SDS011;50960;46.838;16.838;2022-11-03T16:03:15;13.27;;;9.25;;
64560;SDS011;50960;46.838;16.838;2022-11-03T16:05:41;15.65;;;11.00;;
64560;SDS011;50960;46.838;16.838;2022-11-03T16:08:07;15.43;;;11.43;;
64560;SDS011;50960;46.838;16.838;2022-11-03T16:10:33;18.60;;;11.95;;
64560;SDS011;50960;46.838;16.838;2022-11-03T16:13:00;16.02;;;10.45;;
64560;SDS011;50960;46.838;16.838;2022-11-03T16:15:26;17.33;;;11.32;;
64560;SDS011;50960;46.838;16.838;2022-11-03T16:17:52;15.52;;;11.00;;
64560;SDS011;50960;46.838;16.838;2022-11-03T16:20:18;16.45;;;11.18;;
64560;SDS011;50960;46.838;16.838;2022-11-03T16:22:45;16.85;;;12.00;;
64560;SDS011;50960;46.838;16.838;2022-11-03T16:25:11;16.80;;;11.30;;
64560;SDS011;50960;46.838;16.838;2022-11-03T16:27:37;15.05;;;11.15;;
64560;SDS011;50960;46.838;16.838;2022-11-03T16:30:04;14.98;;;10.55;;
64560;SDS011;50960;46.838;16.838;2022-11-03T16:32:31;16.85;;;11.88;;
64560;SDS011;50960;46.838;16.838;2022-11-03T16:34:57;16.13;;;12.52;;
64560;SDS011;50960;46.838;16.838;2022-11-03T16:37:23;17.90;;;10.05;;
64560;SDS011;50960;46.838;16.838;2022-11-03T16:39:53;18.17;;;10.30;;
64560;SDS011;50960;46.838;16.838;2022-11-03T16:42:19;16.58;;;10.50;;
64560;SDS011;50960;46.838;16.838;2022-11-03T16:44:45;25.05;;;14.75;;
64560;SDS011;50960;46.838;16.838;2022-11-03T16:47:11;21.90;;;13.60;;
64560;SDS011;50960;46.838;16.838;2022-11-03T16:49:38;17.98;;;11.30;;
64560;SDS011;50960;46.838;16.838;2022-11-03T16:52:09;18.50;;;11.95;;
64560;SDS011;50960;46.838;16.838;2022-11-03T16:54:35;18.35;;;14.27;;
64560;SDS011;50960;46.838;16.838;2022-11-03T16:57:02;17.50;;;12.55;;
64560;SDS011;50960;46.838;16.838;2022-11-03T16:59:28;18.95;;;13.13;;
64560;SDS011;50960;46.838;16.838;2022-11-03T17:01:57;22.50;;;15.07;;
64560;SDS011;50960;46.838;16.838;2022-11-03T17:04:27;20.80;;;14.60;;
64560;SDS011;50960;46.838;16.838;2022-11-03T17:06:53;21.08;;;13.98;;
64560;SDS011;50960;46.838;16.838;2022-11-03T17:09:20;18.10;;;13.13;;
64560;SDS011;50960;46.838;16.838;2022-11-03T17:11:46;22.02;;;16.15;;
64560;SDS011;50960;46.838;16.838;2022-11-03T17:14:12;23.63;;;15.35;;
64560;SDS011;50960;46.838;16.838;2022-11-03T17:16:39;19.80;;;13.80;;
64560;SDS011;50960;46.838;16.838;2022-11-03T17:19:13;19.77;;;14.02;;
64560;SDS011;50960;46.838;16.838;2022-11-03T17:21:40;21.88;;;13.15;;
64560;SDS011;50960;46.838;16.838;2022-11-03T17:24:06;20.20;;;13.45;;
64560;SDS011;50960;46.838;16.838;2022-11-03T17:26:55;17.13;;;12.63;;
64560;SDS011;50960;46.838;16.838;2022-11-03T17:29:30;20.38;;;13.45;;
64560;SDS011;50960;46.838;16.838;2022-11-03T17:32:03;16.58;;;12.63;;
64560;SDS011;50960;46.838;16.838;2022-11-03T17:34:32;20.63;;;12.80;;
64560;SDS011;50960;46.838;16.838;2022-11-03T17:36:58;22.83;;;13.90;;
64560;SDS011;50960;46.838;16.838;2022-11-03T17:39:26;20.77;;;11.27;;
64560;SDS011;50960;46.838;16.838;2022-11-03T17:42:00;19.50;;;13.02;;
64560;SDS011;50960;46.838;16.838;2022-11-03T17:44:42;18.95;;;12.25;;
64560;SDS011;50960;46.838;16.838;2022-11-03T17:47:09;18.48;;;12.02;;
64560;SDS011;50960;46.838;16.838;2022-11-03T17:49:35;19.13;;;12.60;;
64560;SDS011;50960;46.838;16.838;2022-11-03T17:52:01;17.75;;;11.48;;
64560;SDS011;50960;46.838;16.838;2022-11-03T17:54:28;20.05;;;12.85;;
64560;SDS011;50960;46.838;16.838;2022-11-03T17:56:56;21.50;;;13.25;;
64560;SDS011;50960;46.838;16.838;2022-11-03T17:59:23;22.88;;;13.32;;
64560;SDS011;50960;46.838;16.838;2022-11-03T18:01:53;15.15;;;10.25;;
64560;SDS011;50960;46.838;16.838;2022-11-03T18:04:20;17.13;;;11.82;;
64560;SDS011;50960;46.838;16.838;2022-11-03T18:06:46;18.20;;;11.30;;
64560;SDS011;50960;46.838;16.838;2022-11-03T18:09:12;16.63;;;12.07;;
64560;SDS011;50960;46.838;16.838;2022-11-03T18:11:39;17.33;;;12.25;;
64560;SDS011;50960;46.838;16.838;2022-11-03T18:14:25;19.00;;;12.90;;
64560;SDS011;50960;46.838;16.838;2022-11-03T18:16:53;18.55;;;11.63;;
64560;SDS011;50960;46.838;16.838;2022-11-03T18:19:20;23.52;;;14.63;;
64560;SDS011;50960;46.838;16.838;2022-11-03T18:21:46;20.67;;;13.63;;
64560;SDS011;50960;46.838;16.838;2022-11-03T18:24:14;21.08;;;13.02;;
64560;SDS011;50960;46.838;16.838;2022-11-03T18:26:42;19.50;;;13.93;;
64560;SDS011;50960;46.838;16.838;2022-11-03T18:29:08;25.02;;;17.85;;
64560;SDS011;50960;46.838;16.838;2022-11-03T18:31:38;17.55;;;12.63;;
64560;SDS011;50960;46.838;16.838;2022-11-03T18:34:14;20.42;;;12.55;;
64560;SDS011;50960;46.838;16.838;2022-11-03T18:36:47;18.00;;;11.98;;
64560;SDS011;50960;46.838;16.838;2022-11-03T18:39:16;18.70;;;12.45;;
64560;SDS011;50960;46.838;16.838;2022-11-03T18:46:46;19.80;;;13.10;;
64560;SDS011;50960;46.838;16.838;2022-11-03T18:49:13;17.50;;;12.88;;
64560;SDS011;50960;46.838;16.838;2022-11-03T18:51:45;21.00;;;13.73;;
64560;SDS011;50960;46.838;16.838;2022-11-03T18:54:14;17.35;;;12.80;;
64560;SDS011;50960;46.838;16.838;2022-11-03T18:56:42;19.77;;;13.63;;
64560;SDS011;50960;46.838;16.838;2022-11-03T18:59:14;17.00;;;12.23;;
64560;SDS011;50960;46.838;16.838;2022-11-03T19:01:46;19.38;;;14.00;;
64560;SDS011;50960;46.838;16.838;2022-11-03T19:04:12;17.83;;;12.77;;
64560;SDS011;50960;46.838;16.838;2022-11-03T19:06:42;17.48;;;12.85;;
64560;SDS011;50960;46.838;16.838;2022-11-03T19:09:14;18.83;;;13.23;;
64560;SDS011;50960;46.838;16.838;2022-11-03T19:11:44;17.55;;;11.48;;
64560;SDS011;50960;46.838;16.838;2022-11-03T19:14:14;16.55;;;12.20;;
64560;SDS011;50960;46.838;16.838;2022-11-03T19:16:49;15.75;;;12.82;;
64560;SDS011;50960;46.838;16.838;2022-11-03T19:19:18;16.52;;;12.10;;
64560;SDS011;50960;46.838;16.838;2022-11-03T19:21:44;20.02;;;13.90;;
64560;SDS011;50960;46.838;16.838;2022-11-03T19:24:10;19.52;;;13.27;;
64560;SDS011;50960;46.838;16.838;2022-11-03T19:26:44;19.00;;;14.48;;
64560;SDS011;50960;46.838;16.838;2022-11-03T19:29:17;16.60;;;10.25;;
64560;SDS011;50960;46.838;16.838;2022-11-03T19:31:48;18.45;;;12.13;;
64560;SDS011;50960;46.838;16.838;2022-11-03T19:34:17;19.63;;;13.80;;
64560;SDS011;50960;46.838;16.838;2022-11-03T19:36:46;19.83;;;13.63;;
64560;SDS011;50960;46.838;16.838;2022-11-03T19:39:17;16.85;;;12.98;;
64560;SDS011;50960;46.838;16.838;2022-11-03T19:41:50;17.17;;;12.73;;
64560;SDS011;50960;46.838;16.838;2022-11-03T19:44:35;18.33;;;13.93;;
64560;SDS011;50960;46.838;16.838;2022-11-03T19:47:02;20.35;;;13.48;;
64560;SDS011;50960;46.838;16.838;2022-11-03T19:49:29;17.73;;;13.55;;
64560;SDS011;50960;46.838;16.838;2022-11-03T19:51:56;20.70;;;15.07;;
64560;SDS011;50960;46.838;16.838;2022-11-03T19:54:22;19.20;;;12.98;;
64560;SDS011;50960;46.838;16.838;2022-11-03T19:56:50;18.42;;;13.20;;
64560;SDS011;50960;46.838;16.838;2022-11-03T19:59:19;17.70;;;12.98;;
64560;SDS011;50960;46.838;16.838;2022-11-03T20:01:46;17.17;;;13.00;;
64560;SDS011;50960;46.838;16.838;2022-11-03T20:04:14;18.45;;;13.02;;
64560;SDS011;50960;46.838;16.838;2022-11-03T20:06:41;16.63;;;12.43;;
64560;SDS011;50960;46.838;16.838;2022-11-03T20:09:09;17.20;;;12.70;;
64560;SDS011;50960;46.838;16.838;2022-11-03T20:11:43;18.08;;;12.05;;
64560;SDS011;50960;46.838;16.838;2022-11-03T20:14:18;18.17;;;13.23;;
64560;SDS011;50960;46.838;16.838;2022-11-03T20:16:49;16.27;;;11.57;;
64560;SDS011;50960;46.838;16.838;2022-11-03T20:19:17;17.35;;;11.98;;
64560;SDS011;50960;46.838;16.838;2022-11-03T20:21:51;23.83;;;15.77;;
64560;SDS011;50960;46.838;16.838;2022-11-03T20:24:18;14.98;;;10.57;;
64560;SDS011;50960;46.838;16.838;2022-11-03T20:26:46;18.17;;;13.40;;
64560;SDS011;50960;46.838;16.838;2022-11-03T20:29:13;17.75;;;12.40;;
64560;SDS011;50960;46.838;16.838;2022-11-03T20:31:43;18.65;;;12.73;;
64560;SDS011;50960;46.838;16.838;2022-11-03T20:34:16;15.35;;;11.65;;
64560;SDS011;50960;46.838;16.838;2022-11-03T20:36:43;17.63;;;13.13;;
64560;SDS011;50960;46.838;16.838;2022-11-03T20:39:13;16.75;;;12.40;;
64560;SDS011;50960;46.838;16.838;2022-11-03T20:41:46;19.45;;;13.93;;
64560;SDS011;50960;46.838;16.838;2022-11-03T20:44:16;18.75;;;13.13;;
64560;SDS011;50960;46.838;16.838;2022-11-03T20:46:44;14.60;;;10.85;;
64560;SDS011;50960;46.838;16.838;2022-11-03T20:49:10;14.93;;;11.82;;
64560;SDS011;50960;46.838;16.838;2022-11-03T20:51:41;18.25;;;13.77;;
64560;SDS011;50960;46.838;16.838;2022-11-03T20:54:15;17.23;;;11.77;;
64560;SDS011;50960;46.838;16.838;2022-11-03T20:56:44;17.02;;;11.57;;
64560;SDS011;50960;46.838;16.838;2022-11-03T20:59:11;14.40;;;10.77;;
64560;SDS011;50960;46.838;16.838;2022-11-03T21:01:38;15.95;;;11.75;;
64560;SDS011;50960;46.838;16.838;2022-11-03T21:04:05;14.98;;;10.90;;
64560;SDS011;50960;46.838;16.838;2022-11-03T21:06:38;17.25;;;12.65;;
64560;SDS011;50960;46.838;16.838;2022-11-03T21:09:09;18.80;;;11.90;;
64560;SDS011;50960;46.838;16.838;2022-11-03T21:11:40;14.95;;;12.35;;
64560;SDS011;50960;46.838;16.838;2022-11-03T21:16:39;15.32;;;11.45;;
64560;SDS011;50960;46.838;16.838;2022-11-03T21:19:25;18.95;;;13.77;;
64560;SDS011;50960;46.838;16.838;2022-11-03T21:22:16;12.13;;;9.20;;
64560;SDS011;50960;46.838;16.838;2022-11-03T21:24:44;12.27;;;9.73;;
64560;SDS011;50960;46.838;16.838;2022-11-03T21:27:11;16.17;;;12.23;;
64560;SDS011;50960;46.838;16.838;2022-11-03T21:29:38;18.75;;;14.13;;
64560;SDS011;50960;46.838;16.838;2022-11-03T21:32:06;13.63;;;10.02;;
64560;SDS011;50960;46.838;16.838;2022-11-03T21:34:35;11.05;;;7.75;;
64560;SDS011;50960;46.838;16.838;2022-11-03T21:37:01;13.23;;;10.32;;
64560;SDS011;50960;46.838;16.838;2022-11-03T21:39:28;17.65;;;13.38;;
64560;SDS011;50960;46.838;16.838;2022-11-03T21:41:54;19.63;;;13.77;;
64560;SDS011;50960;46.838;16.838;2022-11-03T21:44:40;16.83;;;12.15;;
64560;SDS011;50960;46.838;16.838;2022-11-03T21:47:07;15.27;;;11.95;;
64560;SDS011;50960;46.838;16.838;2022-11-03T21:49:33;17.10;;;12.63;;
64560;SDS011;50960;46.838;16.838;2022-11-03T21:52:09;17.40;;;13.68;;
64560;SDS011;50960;46.838;16.838;2022-11-03T21:54:40;19.65;;;15.10;;
64560;SDS011;50960;46.838;16.838;2022-11-03T21:57:07;18.23;;;14.77;;
64560;SDS011;50960;46.838;16.838;2022-11-03T21:59:35;18.98;;;13.63;;
64560;SDS011;50960;46.838;16.838;2022-11-03T22:02:02;18.90;;;14.00;;
64560;SDS011;50960;46.838;16.838;2022-11-03T22:04:29;16.15;;;11.50;;
64560;SDS011;50960;46.838;16.838;2022-11-03T22:06:56;16.27;;;13.20;;
